createdAt,value
2023-04-11T00:01:30.145Z,101263.50
2023-04-11T00:03:58.242Z,101242.53
2023-04-11T00:06:26.478Z,101249.59
2023-04-11T00:08:54.491Z,101203.59
2023-04-11T00:11:22.376Z,101247.16
2023-04-11T00:13:50.277Z,101215.84
2023-04-11T00:16:19.852Z,101252.31
2023-04-11T00:18:47.726Z,101199.75
2023-04-11T00:21:15.912Z,101237.06
2023-04-11T00:23:43.693Z,101227.00
2023-04-11T00:26:11.908Z,101232.44
2023-04-11T00:28:40.694Z,101198.94
2023-04-11T00:31:08.626Z,101191.88
2023-04-11T00:33:36.919Z,101219.06
2023-04-11T00:36:06.292Z,101199.75
2023-04-11T00:38:34.198Z,101226.16
2023-04-11T00:41:02.326Z,101172.88
2023-04-11T00:43:30.209Z,101175.00
2023-04-11T00:45:59.719Z,101224.81
2023-04-11T00:48:28.785Z,101147.84
2023-04-11T00:50:56.790Z,101216.91
2023-04-11T00:53:24.957Z,101209.59
2023-04-11T00:55:52.921Z,101205.19
2023-04-11T00:58:20.697Z,101218.81
2023-04-11T01:00:51.748Z,101211.44
2023-04-11T01:03:19.990Z,101180.44
2023-04-11T01:05:54.762Z,101168.47
2023-04-11T01:08:23.167Z,101154.34
2023-04-11T01:10:53.420Z,101191.31
2023-04-11T01:13:21.309Z,101168.97
2023-04-11T01:15:49.264Z,101127.66
2023-04-11T01:18:17.034Z,101165.16
2023-04-11T01:20:44.955Z,101136.34
2023-04-11T01:23:14.520Z,101148.88
2023-04-11T01:25:42.719Z,101161.06
2023-04-11T01:28:11.848Z,101102.66
2023-04-11T01:30:39.677Z,101164.09
2023-04-11T01:33:07.911Z,101186.94
2023-04-11T01:35:35.874Z,101133.09
2023-04-11T01:38:04.876Z,101175.22
2023-04-11T01:40:33.633Z,101157.56
2023-04-11T01:43:04.657Z,101153.75
2023-04-11T01:45:33.053Z,101156.19
2023-04-11T01:48:05.810Z,101164.63
2023-04-11T01:50:33.677Z,101173.03
2023-04-11T01:53:01.861Z,101173.84
2023-04-11T01:55:30.794Z,101116.22
2023-04-11T01:57:59.298Z,101168.13
2023-04-11T02:00:27.116Z,101137.44
2023-04-11T02:02:54.868Z,101164.34
2023-04-11T02:05:24.147Z,101139.88
2023-04-11T02:07:52.022Z,101121.13
2023-04-11T02:10:19.804Z,101142.56
2023-04-11T02:12:47.660Z,101149.91
2023-04-11T02:15:15.483Z,101130.38
2023-04-11T02:17:45.581Z,101155.91
2023-04-11T02:20:14.310Z,101155.91
2023-04-11T02:22:42.122Z,101147.19
2023-04-11T02:25:10.135Z,101143.69
2023-04-11T02:27:37.902Z,101155.41
2023-04-11T02:30:06.438Z,101156.47
2023-04-11T02:32:35.438Z,101142.88
2023-04-11T02:35:05.103Z,101149.97
2023-04-11T02:37:32.988Z,100923.34
2023-04-11T02:40:02.570Z,101151.06
2023-04-11T02:42:31.035Z,101171.47
2023-04-11T02:45:00.261Z,101168.22
2023-04-11T02:47:30.428Z,101151.63
2023-04-11T02:50:03.279Z,101122.28
2023-04-11T02:52:39.566Z,101189.44
2023-04-11T02:55:07.665Z,101168.50
2023-04-11T02:57:38.697Z,101179.06
2023-04-11T03:00:10.421Z,101138.00
2023-04-11T03:02:46.873Z,101171.22
2023-04-11T03:05:15.906Z,101185.31
2023-04-11T03:07:50.148Z,101127.44
2023-04-11T03:10:18.142Z,101154.34
2023-04-11T03:12:46.322Z,101123.63
2023-04-11T03:15:17.941Z,101111.94
2023-04-11T03:17:46.073Z,101071.19
2023-04-11T03:20:19.899Z,101173.63
2023-04-11T03:22:51.517Z,101154.06
2023-04-11T03:25:20.621Z,101132.56
2023-04-11T03:27:51.473Z,101142.38
2023-04-11T03:30:19.321Z,101123.59
2023-04-11T03:32:48.873Z,101113.56
2023-04-11T03:35:18.889Z,101135.81
2023-04-11T03:37:48.337Z,101086.38
2023-04-11T03:40:18.952Z,101102.94
2023-04-11T03:42:52.570Z,101130.63
2023-04-11T03:45:25.391Z,101115.13
2023-04-11T03:47:55.257Z,101109.69
2023-04-11T03:50:28.371Z,101120.28
2023-04-11T03:53:00.868Z,101102.09
2023-04-11T03:55:29.909Z,101124.41
2023-04-11T03:57:58.536Z,101098.28
2023-04-11T04:00:28.664Z,101101.00
2023-04-11T04:03:04.890Z,101099.38
2023-04-11T04:05:33.050Z,101068.94
2023-04-11T04:08:01.225Z,101114.03
2023-04-11T04:10:43.012Z,101117.03
2023-04-11T04:13:11.879Z,101118.44
2023-04-11T04:15:43.211Z,101124.41
2023-04-11T04:18:13.410Z,101133.09
2023-04-11T04:20:44.757Z,101089.66
2023-04-11T04:23:14.294Z,101089.09
2023-04-11T04:25:58.391Z,101079.84
2023-04-11T04:28:29.357Z,101129.84
2023-04-11T04:30:59.678Z,101078.72
2023-04-11T04:33:33.346Z,101130.09
2023-04-11T04:36:10.312Z,101134.16
2023-04-11T04:38:42.332Z,101095.06
2023-04-11T04:41:22.279Z,101106.97
2023-04-11T04:43:58.454Z,101137.69
2023-04-11T04:46:56.793Z,101135.78
2023-04-11T04:49:28.681Z,101138.78
2023-04-11T04:51:56.378Z,101112.41
2023-04-11T04:54:24.426Z,101098.59
2023-04-11T04:56:54.297Z,101142.88
2023-04-11T04:59:23.371Z,101088.00
2023-04-11T05:01:57.783Z,101123.59
2023-04-11T05:04:30.547Z,101132.53
2023-04-11T05:07:00.857Z,101129.81
2023-04-11T05:09:31.015Z,101104.28
2023-04-11T05:12:09.326Z,101084.47
2023-04-11T05:14:39.993Z,101093.69
2023-04-11T05:17:08.203Z,101102.63
2023-04-11T05:19:38.676Z,101127.09
2023-04-11T05:22:06.412Z,101097.75
2023-04-11T05:24:38.705Z,101064.06
2023-04-11T05:27:09.384Z,101136.34
2023-04-11T05:29:37.467Z,101088.53
2023-04-11T05:32:05.911Z,101139.31
2023-04-11T05:34:56.671Z,101135.50
2023-04-11T05:37:50.495Z,101068.94
2023-04-11T05:40:20.170Z,101141.50
2023-04-11T05:42:53.139Z,101086.34
2023-04-11T05:45:21.030Z,101113.50
2023-04-11T05:47:49.972Z,100899.19
2023-04-11T05:50:18.210Z,101039.91
2023-04-11T05:52:46.205Z,101152.66
2023-04-11T05:55:15.112Z,101158.66
2023-04-11T05:57:42.830Z,101113.00
2023-04-11T06:00:16.648Z,101156.50
2023-04-11T06:02:45.059Z,101146.47
2023-04-11T06:05:13.178Z,101121.16
2023-04-11T06:07:41.655Z,101134.47
2023-04-11T06:10:10.560Z,101134.47
2023-04-11T06:12:41.285Z,101103.22
2023-04-11T06:15:09.855Z,101172.28
2023-04-11T06:17:38.658Z,101159.75
2023-04-11T06:20:08.646Z,101149.19
2023-04-11T06:22:36.723Z,101158.97
2023-04-11T06:25:04.911Z,101191.34
2023-04-11T06:27:33.162Z,101170.66
2023-04-11T06:30:04.514Z,101121.19
2023-04-11T06:32:32.327Z,101175.56
2023-04-11T06:35:00.736Z,101187.50
2023-04-11T06:37:29.968Z,101191.06
2023-04-11T06:40:01.459Z,101154.91
2023-04-11T06:42:30.111Z,101159.78
2023-04-11T06:44:58.877Z,101187.28
2023-04-11T06:47:26.800Z,101180.44
2023-04-11T06:49:55.771Z,101195.13
2023-04-11T06:52:24.581Z,101195.41
2023-04-11T06:54:53.950Z,101195.94
2023-04-11T06:57:22.326Z,101196.47
2023-04-11T06:59:50.108Z,101198.09
2023-04-11T07:02:18.044Z,101194.56
2023-04-11T07:04:46.312Z,101138.00
2023-04-11T07:07:14.279Z,101115.72
2023-04-11T07:09:43.504Z,101189.38
2023-04-11T07:12:11.269Z,101179.06
2023-04-11T07:14:39.671Z,101189.97
2023-04-11T07:17:07.635Z,101170.13
2023-04-11T07:19:35.639Z,101192.41
2023-04-11T07:22:04.482Z,101125.53
2023-04-11T07:24:32.604Z,101184.50
2023-04-11T07:27:01.992Z,101178.78
2023-04-11T07:29:30.026Z,101187.47
2023-04-11T07:32:00.396Z,101082.56
2023-04-11T07:34:28.348Z,101132.03
2023-04-11T07:37:01.379Z,101182.03
2023-04-11T07:39:29.188Z,101185.84
2023-04-11T07:41:56.962Z,101164.63
2023-04-11T07:44:24.938Z,101136.34
2023-04-11T07:46:52.882Z,101147.78
2023-04-11T07:49:20.797Z,101169.50
2023-04-11T07:51:48.740Z,101115.41
2023-04-11T07:54:16.964Z,101140.69
2023-04-11T07:56:46.572Z,101165.69
2023-04-11T07:59:16.197Z,101176.88
2023-04-11T08:01:44.152Z,101180.94
2023-04-11T08:04:12.413Z,101174.44
2023-04-11T08:06:40.343Z,101133.91
2023-04-11T08:09:08.476Z,101098.28
2023-04-11T08:11:36.754Z,101151.53
2023-04-11T08:14:04.543Z,101137.97
2023-04-11T08:16:35.819Z,101168.97
2023-04-11T08:19:03.575Z,101167.06
2023-04-11T08:21:32.419Z,101082.53
2023-04-11T08:24:00.338Z,101133.63
2023-04-11T08:26:29.386Z,101137.97
2023-04-11T08:28:57.174Z,101162.69
2023-04-11T08:31:25.790Z,101090.94
2023-04-11T08:33:53.660Z,101165.72
2023-04-11T08:36:21.489Z,101175.22
2023-04-11T08:38:52.003Z,101158.63
2023-04-11T08:41:19.767Z,101155.34
2023-04-11T08:43:48.116Z,101136.59
2023-04-11T08:46:18.060Z,101166.47
2023-04-11T08:48:46.106Z,101162.94
2023-04-11T08:51:14.844Z,101163.16
2023-04-11T08:53:43.491Z,101094.16
2023-04-11T08:56:17.229Z,101166.22
2023-04-11T08:58:45.659Z,101166.47
2023-04-11T09:01:34.268Z,101146.06
2023-04-11T09:04:05.436Z,101159.63
2023-04-11T09:06:34.375Z,101130.81
2023-04-11T09:09:08.294Z,101141.66
2023-04-11T09:11:53.622Z,101141.34
2023-04-11T09:14:26.474Z,101136.72
2023-04-11T09:17:02.577Z,101103.59
2023-04-11T09:19:33.448Z,101113.09
2023-04-11T09:22:07.156Z,101135.09
2023-04-11T09:24:36.280Z,101089.16
2023-04-11T09:27:17.074Z,101137.22
2023-04-11T09:29:46.702Z,101130.09
2023-04-11T09:32:36.121Z,101116.81
2023-04-11T09:35:16.050Z,101125.22
2023-04-11T09:37:49.361Z,101105.91
2023-04-11T09:40:19.956Z,101124.63
2023-04-11T09:42:48.959Z,101077.88
2023-04-11T09:45:23.591Z,101119.19
2023-04-11T09:47:53.629Z,101028.22
2023-04-11T09:50:23.049Z,101118.91
2023-04-11T09:52:53.013Z,101076.25
2023-04-11T09:55:23.017Z,101100.72
2023-04-11T09:57:52.947Z,101113.72
2023-04-11T10:00:32.448Z,101112.09
2023-04-11T10:03:01.052Z,101095.78
2023-04-11T10:05:30.654Z,101064.03
2023-04-11T10:08:32.950Z,101108.25
2023-04-11T10:11:02.123Z,101074.03
2023-04-11T10:13:39.527Z,101095.16
2023-04-11T10:16:15.672Z,101080.47
2023-04-11T10:18:52.854Z,101096.78
2023-04-11T10:21:33.454Z,101092.94
2023-04-11T10:24:18.388Z,101088.53
2023-04-11T10:26:50.612Z,101093.66
2023-04-11T10:29:33.214Z,101090.13
2023-04-11T10:32:21.620Z,101078.22
2023-04-11T10:34:55.793Z,101093.97
2023-04-11T10:37:37.262Z,101088.91
2023-04-11T10:40:10.186Z,101092.44
2023-04-11T10:42:43.832Z,101048.63
2023-04-11T10:45:24.757Z,101077.38
2023-04-11T10:48:08.118Z,101066.72
2023-04-11T10:50:42.538Z,101009.50
2023-04-11T10:53:34.251Z,101062.03
2023-04-11T10:56:03.865Z,100980.88
2023-04-11T10:58:40.934Z,101040.22
2023-04-11T11:01:21.419Z,101052.94
2023-04-11T11:04:00.363Z,101038.38
2023-04-11T11:06:29.702Z,101015.53
2023-04-11T11:09:00.357Z,101020.63
2023-04-11T11:11:28.451Z,101022.94
2023-04-11T11:13:56.837Z,101033.25
2023-04-11T11:16:26.777Z,100991.44
2023-04-11T11:18:57.839Z,101029.69
2023-04-11T11:21:28.806Z,101033.47
2023-04-11T11:24:03.835Z,101034.84
2023-04-11T11:26:41.633Z,101023.94
2023-04-11T11:29:10.925Z,101026.09
2023-04-11T11:31:45.973Z,101027.19
2023-04-11T11:34:28.516Z,101019.00
2023-04-11T11:36:56.745Z,101008.41
2023-04-11T11:39:26.138Z,100985.88
2023-04-11T11:41:54.108Z,101003.44
2023-04-11T11:44:28.315Z,100999.97
2023-04-11T11:47:07.377Z,100993.94
2023-04-11T11:49:56.838Z,100981.41
2023-04-11T11:52:34.586Z,100964.03
2023-04-11T11:55:08.720Z,100969.09
2023-04-11T11:57:44.921Z,100956.34
2023-04-11T12:00:15.299Z,100945.44
2023-04-11T12:02:44.698Z,100939.41
2023-04-11T12:05:12.960Z,100925.31
2023-04-11T12:07:41.068Z,100930.41
2023-04-11T12:10:13.845Z,100966.22
2023-04-11T12:12:53.111Z,100980.44
2023-04-11T12:15:25.759Z,100961.09
2023-04-11T12:17:58.186Z,100957.25
2023-04-11T12:20:27.435Z,100945.84
2023-04-11T12:22:56.457Z,100950.47
2023-04-11T12:25:26.130Z,100945.28
2023-04-11T12:27:54.434Z,100910.00
2023-04-11T12:30:23.335Z,100934.41
2023-04-11T12:32:51.423Z,100936.28
2023-04-11T12:35:19.579Z,100932.28
2023-04-11T12:37:47.505Z,100918.63
2023-04-11T12:40:15.780Z,100880.41
2023-04-11T12:42:56.234Z,100920.75
2023-04-11T12:45:26.252Z,100870.88
2023-04-11T12:47:54.932Z,100883.66
2023-04-11T12:50:25.829Z,100870.56
2023-04-11T12:52:53.807Z,100894.22
2023-04-11T12:55:22.494Z,100859.41
2023-04-11T12:57:50.417Z,100911.41
2023-04-11T13:00:18.624Z,100857.19
2023-04-11T13:02:47.115Z,100819.25
2023-04-11T13:05:15.814Z,100898.00
2023-04-11T13:07:45.558Z,100884.94
2023-04-11T13:10:19.866Z,100875.72
2023-04-11T13:12:51.352Z,100884.94
2023-04-11T13:15:19.972Z,100811.22
2023-04-11T13:17:47.917Z,100856.75
2023-04-11T13:20:15.676Z,100869.28
2023-04-11T13:22:43.760Z,100873.53
2023-04-11T13:25:12.485Z,100869.16
2023-04-11T13:27:41.957Z,100821.16
2023-04-11T13:30:10.759Z,100873.53
2023-04-11T13:32:38.917Z,100870.84
2023-04-11T13:35:07.505Z,100854.78
2023-04-11T13:37:35.700Z,100815.53
2023-04-11T13:40:06.635Z,100803.25
2023-04-11T13:42:36.766Z,100798.38
2023-04-11T13:45:04.874Z,100828.97
2023-04-11T13:47:32.583Z,100833.97
2023-04-11T13:50:01.581Z,100819.13
2023-04-11T13:52:29.419Z,100792.78
2023-04-11T13:54:57.529Z,100797.06
2023-04-11T13:57:25.511Z,100780.84
2023-04-11T13:59:53.242Z,100807.66
2023-04-11T14:02:21.321Z,100792.41
2023-04-11T14:04:49.761Z,100810.19
2023-04-11T14:07:17.842Z,100804.72
2023-04-11T14:09:46.060Z,100779.41
2023-04-11T14:12:13.647Z,100794.63
2023-04-11T14:14:42.436Z,100623.47
2023-04-11T14:17:10.753Z,100694.09
2023-04-11T14:19:38.997Z,100785.78
2023-04-11T14:22:07.065Z,100764.09
2023-04-11T14:24:35.132Z,100767.94
2023-04-11T14:27:03.393Z,100767.34
2023-04-11T14:29:31.555Z,100735.63
2023-04-11T14:31:59.479Z,100524.25
2023-04-11T14:34:28.801Z,100745.66
2023-04-11T14:36:57.619Z,100713.84
2023-04-11T14:39:25.714Z,100718.63
2023-04-11T14:41:53.752Z,100689.09
2023-04-11T14:44:21.419Z,100708.19
2023-04-11T14:46:49.767Z,100718.97
2023-04-11T14:49:17.714Z,100706.56
2023-04-11T14:51:46.146Z,100708.41
2023-04-11T14:54:14.185Z,100654.88
2023-04-11T14:56:42.296Z,100725.22
2023-04-11T14:59:11.547Z,100697.56
2023-04-11T15:01:39.783Z,100702.78
2023-04-11T15:04:07.928Z,100713.88
2023-04-11T15:06:36.324Z,100646.50
2023-04-11T15:09:04.844Z,100687.53
2023-04-11T15:11:33.389Z,100692.97
2023-04-11T15:14:01.480Z,100663.59
2023-04-11T15:16:29.342Z,100670.16
2023-04-11T15:18:57.343Z,100660.63
2023-04-11T15:21:26.840Z,100687.22
2023-04-11T15:23:56.355Z,100680.59
2023-04-11T15:26:24.627Z,100602.81
2023-04-11T15:28:52.592Z,100635.09
2023-04-11T15:31:28.460Z,100619.75
2023-04-11T15:34:03.643Z,100667.06
2023-04-11T15:36:33.935Z,100647.00
2023-04-11T15:39:02.329Z,100615.47
2023-04-11T15:41:32.067Z,100650.56
2023-04-11T15:44:02.762Z,100625.28
2023-04-11T15:46:31.030Z,100597.13
2023-04-11T15:48:58.840Z,100655.41
2023-04-11T15:51:27.342Z,100648.34
2023-04-11T15:53:55.669Z,100649.44
2023-04-11T15:56:23.693Z,100647.53
2023-04-11T15:58:51.444Z,100610.09
2023-04-11T16:01:25.966Z,100649.97
2023-04-11T16:03:54.424Z,100634.78
2023-04-11T16:06:22.747Z,100569.75
2023-04-11T16:08:51.300Z,100604.44
2023-04-11T16:11:19.414Z,100575.78
2023-04-11T16:13:48.706Z,100591.03
2023-04-11T16:16:16.615Z,100613.78
2023-04-11T16:18:44.755Z,100616.72
2023-04-11T16:21:14.158Z,100623.69
2023-04-11T16:23:42.911Z,100559.44
2023-04-11T16:26:12.073Z,100616.06
2023-04-11T16:28:39.932Z,100609.50
2023-04-11T16:31:08.032Z,100533.41
2023-04-11T16:33:37.872Z,100557.34
2023-04-11T16:36:08.798Z,100598.66
2023-04-11T16:38:37.121Z,100605.06
2023-04-11T16:41:06.217Z,100586.56
2023-04-11T16:43:33.872Z,100573.16
2023-04-11T16:46:02.130Z,100579.06
2023-04-11T16:48:31.767Z,100587.16
2023-04-11T16:50:59.682Z,100589.50
2023-04-11T16:53:27.670Z,100588.41
2023-04-11T16:55:57.270Z,100548.72
2023-04-11T16:58:25.008Z,100576.47
2023-04-11T17:00:53.256Z,100561.25
2023-04-11T17:03:22.120Z,100581.28
2023-04-11T17:05:50.083Z,100527.88
2023-04-11T17:08:18.352Z,100463.25
2023-04-11T17:10:46.561Z,100556.22
2023-04-11T17:13:16.105Z,100487.72
2023-04-11T17:15:45.807Z,100438.59
2023-04-11T17:18:15.178Z,100564.31
2023-04-11T17:20:43.762Z,100566.97
2023-04-11T17:23:11.597Z,100560.72
2023-04-11T17:25:42.367Z,100552.81
2023-04-11T17:28:10.222Z,100557.69
2023-04-11T17:30:42.683Z,100553.84
2023-04-11T17:33:10.504Z,100563.13
2023-04-11T17:35:39.417Z,100528.53
2023-04-11T17:38:07.551Z,100539.47
2023-04-11T17:40:35.575Z,100547.34
2023-04-11T17:43:03.729Z,100489.66
2023-04-11T17:48:15.313Z,100500.41
2023-04-11T17:50:46.569Z,100525.34
2023-04-11T17:53:14.563Z,100509.84
2023-04-11T17:55:42.562Z,100546.41
2023-04-11T17:58:10.272Z,100500.75
2023-04-11T18:00:48.466Z,100465.22
2023-04-11T18:03:25.546Z,100534.41
2023-04-11T18:05:56.897Z,100511.53
2023-04-11T18:08:46.908Z,100512.56
2023-04-11T18:11:15.159Z,100549.38
2023-04-11T18:13:44.026Z,100515.97
2023-04-11T18:16:11.958Z,100508.28
2023-04-11T18:18:40.342Z,100505.38
2023-04-11T18:21:11.964Z,100527.63
2023-04-11T18:23:40.928Z,100475.09
2023-04-11T18:26:08.674Z,100524.47
2023-04-11T18:28:36.657Z,100438.66
2023-04-11T18:31:06.033Z,100531.09
2023-04-11T18:33:35.171Z,100466.88
2023-04-11T18:36:04.244Z,100509.84
2023-04-11T18:38:32.264Z,100536.56
2023-04-11T18:41:04.678Z,100499.56
2023-04-11T18:43:33.859Z,100536.34
2023-04-11T18:46:02.358Z,100541.31
2023-04-11T18:48:31.874Z,100540.19
2023-04-11T18:51:00.627Z,100468.38
2023-04-11T18:53:30.237Z,100513.09
2023-04-11T18:56:03.166Z,100525.94
2023-04-11T18:58:34.295Z,100544.09
2023-04-11T19:01:14.586Z,100496.44
2023-04-11T19:03:44.322Z,100523.47
2023-04-11T19:06:13.203Z,100528.91
2023-04-11T19:08:41.781Z,100478.19
2023-04-11T19:11:09.651Z,100534.91
2023-04-11T19:13:37.745Z,100533.88
2023-04-11T19:16:07.481Z,100542.34
2023-04-11T19:18:35.747Z,100514.44
2023-04-11T19:21:07.017Z,100526.34
2023-04-11T19:23:38.348Z,100467.44
2023-04-11T19:26:06.465Z,100472.66
2023-04-11T19:28:34.542Z,100512.22
2023-04-11T19:31:04.667Z,100517.88
2023-04-11T19:33:32.677Z,100538.94
2023-04-11T19:36:00.622Z,100491.41
2023-04-11T19:38:28.614Z,100517.06
2023-04-11T19:40:57.258Z,100532.91
2023-04-11T19:43:25.998Z,100505.97
2023-04-11T19:45:54.064Z,100511.06
2023-04-11T19:48:21.884Z,100517.31
2023-04-11T19:50:49.904Z,100540.81
2023-04-11T19:53:17.805Z,100540.19
2023-04-11T19:55:54.202Z,100541.16
2023-04-11T19:58:23.967Z,100558.66
2023-04-11T20:00:55.293Z,100452.72
2023-04-11T20:03:23.385Z,100522.38
2023-04-11T20:05:51.371Z,100527.75
2023-04-11T20:08:21.398Z,100546.97
2023-04-11T20:10:49.370Z,100532.09
2023-04-11T20:13:17.233Z,100515.22
2023-04-11T20:15:45.368Z,100529.22
2023-04-11T20:18:13.577Z,100517.22
2023-04-11T20:20:41.613Z,100532.28
2023-04-11T20:23:09.529Z,100535.00
2023-04-11T20:25:37.466Z,100540.47
2023-04-11T20:28:07.613Z,100552.41
2023-04-11T20:30:38.708Z,100519.50
2023-04-11T20:33:06.936Z,100513.53
2023-04-11T20:35:34.908Z,100546.94
2023-04-11T20:38:02.954Z,100494.53
2023-04-11T20:40:30.762Z,100514.06
2023-04-11T20:43:00.459Z,100501.28
2023-04-11T20:45:30.125Z,100506.44
2023-04-11T20:47:59.808Z,100546.34
2023-04-11T20:50:33.351Z,100552.41
2023-04-11T20:53:01.859Z,100535.38
2023-04-11T20:55:30.997Z,100543.13
2023-04-11T20:57:58.936Z,100515.16
2023-04-11T21:00:27.320Z,100484.38
2023-04-11T21:02:57.904Z,100535.69
2023-04-11T21:05:26.607Z,100498.50
2023-04-11T21:07:55.393Z,100552.97
2023-04-11T21:10:23.414Z,100552.16
2023-04-11T21:12:54.598Z,100532.97
2023-04-11T21:15:23.067Z,100489.25
2023-04-11T21:17:52.368Z,100525.66
2023-04-11T21:20:21.462Z,100508.66
2023-04-11T21:22:52.956Z,100545.91
2023-04-11T21:25:21.404Z,100509.97
2023-04-11T21:27:50.008Z,100524.28
2023-04-11T21:30:17.790Z,100495.03
2023-04-11T21:32:46.109Z,100521.25
2023-04-11T21:35:15.436Z,100512.88
2023-04-11T21:37:43.364Z,100496.75
2023-04-11T21:40:12.826Z,100342.13
2023-04-11T21:42:41.208Z,100481.16
2023-04-11T21:45:09.133Z,100505.25
2023-04-11T21:47:36.912Z,100489.38
2023-04-11T21:50:05.050Z,100493.63
2023-04-11T21:52:32.968Z,100500.41
2023-04-11T21:55:00.616Z,100469.38
2023-04-11T21:57:29.677Z,100480.41
2023-04-11T21:59:57.593Z,100512.25
2023-04-11T22:02:25.747Z,100495.53
2023-04-11T22:07:33.156Z,100499.91
2023-04-11T22:10:03.953Z,100499.31
2023-04-11T22:12:31.680Z,100502.25
2023-04-11T22:15:00.168Z,100490.94
2023-04-11T22:17:30.344Z,100499.38
2023-04-11T22:20:01.061Z,100514.56
2023-04-11T22:22:30.428Z,100497.25
2023-04-11T22:25:00.015Z,100513.53
2023-04-11T22:27:29.571Z,100508.28
2023-04-11T22:29:57.691Z,100505.38
2023-04-11T22:32:26.710Z,100504.41
2023-04-11T22:34:54.815Z,100449.00
2023-04-11T22:37:22.886Z,100500.19
2023-04-11T22:39:51.056Z,100508.59
2023-04-11T22:42:19.019Z,100458.41
2023-04-11T22:44:46.951Z,100496.34
2023-04-11T22:47:16.884Z,100490.19
2023-04-11T22:49:45.233Z,100488.34
2023-04-11T22:52:19.097Z,100451.56
2023-04-11T22:54:50.240Z,100442.06
2023-04-11T22:57:18.315Z,100462.16
2023-04-11T22:59:46.481Z,100464.28
2023-04-11T23:02:14.798Z,100433.75
2023-04-11T23:04:42.603Z,100463.25
2023-04-11T23:07:11.425Z,100435.31
2023-04-11T23:09:39.182Z,100460.97
2023-04-11T23:12:08.531Z,100445.81
2023-04-11T23:14:39.684Z,100430.22
2023-04-11T23:17:07.679Z,100485.44
2023-04-11T23:19:35.844Z,100442.56
2023-04-11T23:22:03.729Z,100477.06
2023-04-11T23:24:31.849Z,100472.72
2023-04-11T23:26:59.600Z,100453.28
2023-04-11T23:29:27.697Z,100436.31
2023-04-11T23:31:55.578Z,100432.19
2023-04-11T23:34:23.236Z,100470.31
2023-04-11T23:36:51.947Z,100435.50
2023-04-11T23:39:21.715Z,100377.66
2023-04-11T23:41:52.386Z,100404.44
2023-04-11T23:44:20.319Z,100432.28
2023-04-11T23:46:48.189Z,100455.44
2023-04-11T23:49:16.057Z,100425.28
2023-04-11T23:51:44.280Z,100431.75
2023-04-11T23:54:12.371Z,100446.75
2023-04-11T23:56:41.666Z,100412.69
2023-04-11T23:59:09.627Z,100422.81
